Time;durP1;ratioP1;P1;durP2;ratioP2;P2;SDS_P1;SDS_P2;PMS_P1;PMS_P2;Temp;Humidity;BMP_temperature;BMP_pressure;BME280_temperature;BME280_humidity;BME280_pressure;Samples;Min_cycle;Max_cycle;Signal;HPM_P1;HPM_P2
2023/06/26 00:01:58;;;;;;;9.40;8.50;;;;;;;21.84;90.39;101134.94;5007493;28;20034;-66
2023/06/26 00:04:24;;;;;;;9.10;8.25;;;;;;;21.87;90.02;101139.13;5013274;28;20041;-67
2023/06/26 00:06:49;;;;;;;9.77;8.88;;;;;;;21.90;89.90;101144.97;5010738;28;20033;-66
2023/06/26 00:09:14;;;;;;;8.73;7.82;;;;;;;22.14;81.70;101142.13;5027525;28;20512;-67
2023/06/26 00:11:40;;;;;;;7.72;6.82;;;;;;;22.28;80.74;101134.66;5019420;28;20632;-67
2023/06/26 00:14:06;;;;;;;7.35;6.65;;;;;;;22.41;77.99;101135.88;5002076;28;20109;-66
2023/06/26 00:16:31;;;;;;;8.65;6.35;;;;;;;22.44;78.42;101129.66;5024940;28;20268;-67
2023/06/26 00:18:58;;;;;;;7.72;6.22;;;;;;;22.46;77.81;101123.78;5017046;28;20034;-67
2023/06/26 00:21:24;;;;;;;7.45;6.63;;;;;;;22.54;76.60;101123.06;5023765;28;20030;-66
2023/06/26 00:23:49;;;;;;;8.18;6.30;;;;;;;22.56;75.77;101122.75;5017815;28;20087;-67
2023/06/26 00:26:15;;;;;;;7.15;6.15;;;;;;;22.56;76.70;101126.41;5027333;28;20047;-67
2023/06/26 00:28:40;;;;;;;7.03;6.25;;;;;;;22.58;76.36;101118.53;5009119;28;20517;-66
2023/06/26 00:31:05;;;;;;;6.97;6.13;;;;;;;22.61;74.51;101123.53;5016139;28;20048;-66
2023/06/26 00:33:30;;;;;;;7.95;6.28;;;;;;;22.59;75.15;101119.34;5026852;28;20030;-67
2023/06/26 00:35:56;;;;;;;6.93;5.88;;;;;;;22.57;74.65;101118.84;5009997;28;20108;-68
2023/06/26 00:38:21;;;;;;;7.70;5.97;;;;;;;22.55;75.03;101116.31;5019995;28;20022;-66
2023/06/26 00:40:46;;;;;;;6.75;6.00;;;;;;;22.54;74.55;101121.09;5023211;28;20041;-67
2023/06/26 00:43:12;;;;;;;7.25;5.95;;;;;;;22.52;74.62;101120.59;5027159;28;20053;-66
2023/06/26 00:45:37;;;;;;;8.55;6.18;;;;;;;22.48;74.77;101118.69;5010825;28;20125;-67
2023/06/26 00:48:03;;;;;;;7.03;6.32;;;;;;;22.43;75.98;101116.81;5028024;28;20018;-67
2023/06/26 00:50:28;;;;;;;7.13;6.43;;;;;;;22.40;75.84;101122.16;5023577;28;20048;-66
2023/06/26 00:52:56;;;;;;;7.00;6.30;;;;;;;22.38;76.14;101125.28;5025032;28;20021;-66
2023/06/26 00:55:22;;;;;;;7.20;6.50;;;;;;;22.40;75.83;101123.00;5025034;28;20037;-66
2023/06/26 00:57:48;;;;;;;8.10;6.65;;;;;;;22.40;74.39;101127.75;5024978;28;20037;-67
2023/06/26 01:00:14;;;;;;;7.70;6.35;;;;;;;22.39;74.86;101120.50;5026806;28;20569;-66
2023/06/26 01:02:39;;;;;;;7.75;6.45;;;;;;;22.38;74.21;101125.28;5026430;28;20108;-66
2023/06/26 01:05:06;;;;;;;7.55;6.75;;;;;;;22.35;74.67;101137.06;5026712;28;20108;-67
2023/06/26 01:07:36;;;;;;;8.25;6.68;;;;;;;22.34;74.45;101126.19;5017028;28;20022;-67
2023/06/26 01:10:04;;;;;;;8.43;6.55;;;;;;;22.30;74.61;101128.75;5026829;28;20120;-66
2023/06/26 01:12:29;;;;;;;;;;;;;;;22.39;74.32;101142.91;5018141;28;20030;-66
2023/06/26 01:14:55;;;;;;;7.28;6.35;;;;;;;22.23;75.15;101137.53;5025854;28;19920;-67
2023/06/26 01:17:21;;;;;;;8.52;6.13;;;;;;;22.17;75.87;101135.94;5027841;28;20037;-66
2023/06/26 01:19:47;;;;;;;7.53;6.63;;;;;;;22.12;76.93;101143.59;5008450;28;20089;-66
2023/06/26 01:22:16;;;;;;;7.50;6.70;;;;;;;22.07;76.36;101147.25;5009314;28;20676;-66
2023/06/26 01:25:23;;;;;;;7.38;6.45;;;;;;;22.09;75.95;101144.97;5026729;28;20025;-67
2023/06/26 01:27:50;;;;;;;7.97;6.40;;;;;;;21.98;76.37;101149.88;5023964;28;20037;-67
2023/06/26 01:30:17;;;;;;;7.28;6.47;;;;;;;21.93;76.97;101157.50;5020379;28;20040;-67
2023/06/26 01:32:44;;;;;;;7.72;6.93;;;;;;;21.89;76.69;101153.63;5027574;28;20026;-67
2023/06/26 01:35:09;;;;;;;8.10;6.40;;;;;;;21.87;77.95;101161.50;5025491;28;20033;-66
2023/06/26 01:37:35;;;;;;;7.40;6.43;;;;;;;21.84;77.34;101156.50;5027158;28;20026;-66
2023/06/26 01:40:00;;;;;;;7.65;6.50;;;;;;;21.77;77.92;101154.06;5012782;28;20798;-66
2023/06/26 01:42:26;;;;;;;7.55;6.68;;;;;;;21.76;77.02;101152.41;4988867;28;20366;-69
2023/06/26 01:44:55;;;;;;;6.72;6.00;;;;;;;21.76;76.32;101164.41;5006861;28;20075;-66
2023/06/26 01:47:25;;;;;;;7.35;5.60;;;;;;;21.69;76.71;101163.94;5007329;28;20058;-66
2023/06/26 01:50:04;;;;;;;6.55;5.57;;;;;;;21.66;77.29;101180.47;5017771;28;20041;-66
2023/06/26 01:52:49;;;;;;;7.38;5.45;;;;;;;21.65;77.32;101181.63;5018667;28;20087;-67
2023/06/26 01:55:35;;;;;;;7.32;5.38;;;;;;;21.58;77.00;101187.53;5026368;28;20391;-66
2023/06/26 01:58:01;;;;;;;6.30;5.25;;;;;;;21.52;78.66;101185.09;5023650;28;20073;-66
2023/06/26 02:00:27;;;;;;;7.93;5.47;;;;;;;21.48;77.81;101190.44;5026515;28;20032;-66
2023/06/26 02:02:53;;;;;;;6.38;4.80;;;;;;;21.44;77.11;101178.19;5023399;28;20030;-66
2023/06/26 02:05:18;;;;;;;6.20;5.07;;;;;;;21.41;78.51;101185.22;5017546;28;20033;-66
2023/06/26 02:07:43;;;;;;;7.20;4.82;;;;;;;21.39;76.97;101186.63;5007896;28;20037;-66
2023/06/26 02:10:09;;;;;;;6.85;4.72;;;;;;;21.35;78.48;101193.97;5017273;28;20052;-66
2023/06/26 02:12:36;;;;;;;6.20;4.43;;;;;;;21.32;77.83;101188.94;5025706;28;20037;-67
2023/06/26 02:15:02;;;;;;;6.18;4.15;;;;;;;21.30;77.38;101188.38;5024960;28;20120;-66
2023/06/26 02:17:27;;;;;;;6.50;4.65;;;;;;;21.25;77.66;101192.88;5026906;28;20112;-67
2023/06/26 02:19:53;;;;;;;5.65;4.50;;;;;;;21.20;78.44;101184.56;5018711;28;20172;-65
2023/06/26 02:22:18;;;;;;;6.68;4.60;;;;;;;21.18;77.97;101192.38;5006733;28;20030;-67
2023/06/26 02:24:44;;;;;;;5.95;4.53;;;;;;;21.14;78.75;101184.91;5005945;28;20488;-66
2023/06/26 02:27:09;;;;;;;6.55;4.63;;;;;;;21.13;79.14;101184.06;5023390;28;20094;-66
2023/06/26 02:29:35;;;;;;;6.22;4.60;;;;;;;21.10;79.03;101181.03;5025492;28;20033;-67
2023/06/26 02:32:01;;;;;;;5.82;4.10;;;;;;;21.08;78.57;101186.88;5019861;28;20022;-67
2023/06/26 02:34:27;;;;;;;6.95;4.75;;;;;;;21.02;79.32;101182.47;5012903;28;20099;-67
2023/06/26 02:36:55;;;;;;;7.28;4.53;;;;;;;20.99;78.92;101197.03;5023493;28;20026;-67
2023/06/26 02:39:20;;;;;;;6.63;4.07;;;;;;;20.95;77.75;101190.38;5010288;28;20049;-66
2023/06/26 02:41:46;;;;;;;5.85;3.85;;;;;;;20.89;77.88;101199.91;5025967;28;20427;-65
2023/06/26 02:44:12;;;;;;;6.10;3.85;;;;;;;20.86;77.58;101203.28;5061683;22;20021;-66
2023/06/26 02:46:38;;;;;;;6.50;3.55;;;;;;;20.81;77.17;101204.16;5035340;28;20127;-66
2023/06/26 02:49:03;;;;;;;8.00;3.80;;;;;;;20.76;77.64;101212.56;5044635;28;20522;-65
2023/06/26 02:51:28;;;;;;;7.43;3.70;;;;;;;20.75;77.48;101210.91;5049028;28;20033;-68
2023/06/26 02:53:54;;;;;;;9.60;3.65;;;;;;;20.69;78.32;101212.06;5050033;28;20048;-66
2023/06/26 02:56:19;;;;;;;5.53;3.50;;;;;;;20.66;78.77;101216.25;5049883;28;20048;-65
2023/06/26 02:58:44;;;;;;;6.25;3.72;;;;;;;20.63;78.73;101222.44;5049092;28;20029;-67
2023/06/26 03:01:09;;;;;;;6.45;3.50;;;;;;;20.61;79.37;101226.63;5049447;28;20036;-66
2023/06/26 03:03:40;;;;;;;6.22;3.80;;;;;;;20.59;80.01;101226.94;5049941;28;20112;-66
2023/06/26 03:06:07;;;;;;;6.75;3.53;;;;;;;20.57;79.81;101229.16;5048920;28;20021;-66
2023/06/26 03:08:32;;;;;;;6.70;3.60;;;;;;;20.54;79.43;101232.53;5049434;28;20116;-67
2023/06/26 03:10:58;;;;;;;5.72;3.47;;;;;;;20.53;80.48;101236.44;5049075;28;20106;-68
2023/06/26 03:13:23;;;;;;;5.88;3.40;;;;;;;20.50;81.46;101237.03;5050017;28;20052;-67
2023/06/26 03:15:48;;;;;;;6.47;3.67;;;;;;;20.45;80.90;101234.22;5049804;28;20104;-67
2023/06/26 03:18:14;;;;;;;5.78;3.72;;;;;;;20.43;80.15;101233.69;5048918;28;20148;-66
2023/06/26 03:20:39;;;;;;;7.57;4.15;;;;;;;20.44;80.16;101243.72;5049406;28;20495;-66
2023/06/26 03:23:04;;;;;;;6.22;3.80;;;;;;;20.32;81.33;101232.88;5049730;28;20028;-67
2023/06/26 03:25:30;;;;;;;7.40;4.07;;;;;;;20.26;82.87;101236.81;5049801;28;20082;-66
2023/06/26 03:27:55;;;;;;;7.80;4.30;;;;;;;20.24;81.77;101232.66;5049141;28;20025;-69
2023/06/26 03:30:20;;;;;;;6.82;3.80;;;;;;;20.18;82.57;101232.69;5049205;28;20036;-67
2023/06/26 03:32:45;;;;;;;6.18;4.10;;;;;;;20.12;82.32;101222.69;5050083;28;20021;-67
2023/06/26 03:35:11;;;;;;;6.80;4.35;;;;;;;20.08;83.13;101229.94;5049083;28;20057;-66
2023/06/26 03:37:36;;;;;;;6.72;4.03;;;;;;;20.03;83.17;101224.38;5049351;28;20072;-66
2023/06/26 03:40:03;;;;;;;5.80;4.15;;;;;;;20.03;83.45;101220.78;5047490;28;20041;-66
2023/06/26 03:42:28;;;;;;;7.55;3.92;;;;;;;19.99;83.29;101223.28;5048019;28;20097;-67
2023/06/26 03:44:53;;;;;;;6.90;4.13;;;;;;;19.93;84.25;101232.78;5048588;28;20550;-66
2023/06/26 03:47:19;;;;;;;6.45;3.65;;;;;;;19.92;84.12;101225.53;5048044;28;20021;-66
2023/06/26 03:49:44;;;;;;;7.53;3.85;;;;;;;19.90;84.55;101233.34;5048540;28;20021;-67
2023/06/26 03:52:09;;;;;;;6.30;3.77;;;;;;;19.90;85.74;101233.34;5048389;28;20060;-66
2023/06/26 03:54:35;;;;;;;7.38;4.15;;;;;;;19.88;85.91;101235.59;5048006;28;20863;-66
2023/06/26 03:57:00;;;;;;;7.22;4.20;;;;;;;19.84;85.41;101248.44;5048839;28;20040;-67
2023/06/26 03:59:25;;;;;;;7.85;4.35;;;;;;;19.81;86.51;101248.97;5049153;28;20056;-68
2023/06/26 04:01:50;;;;;;;6.13;4.05;;;;;;;19.80;85.48;101250.94;5048800;28;20639;-66
2023/06/26 04:04:16;;;;;;;8.60;4.30;;;;;;;19.78;87.24;101250.41;5049136;28;20087;-68
2023/06/26 04:06:41;;;;;;;10.32;4.05;;;;;;;19.75;87.51;101255.69;5048885;28;20070;-66
2023/06/26 04:09:06;;;;;;;8.20;4.60;;;;;;;19.74;87.85;101257.66;5048247;28;20033;-66
2023/06/26 04:11:32;;;;;;;7.40;3.85;;;;;;;19.70;87.76;101262.94;5048576;28;20036;-67
2023/06/26 04:13:57;;;;;;;7.45;4.07;;;;;;;19.69;88.77;101271.59;5055200;28;20063;-67
2023/06/26 04:16:25;;;;;;;7.28;3.92;;;;;;;19.68;88.65;101269.94;5047744;28;20021;-66
2023/06/26 04:18:51;;;;;;;7.78;4.10;;;;;;;19.69;88.68;101277.16;5044361;28;20049;-67
2023/06/26 04:21:17;;;;;;;7.05;4.18;;;;;;;19.66;89.79;101292.47;5028937;28;20021;-65
2023/06/26 04:23:43;;;;;;;7.80;4.20;;;;;;;19.64;89.46;101285.53;5029131;28;20072;-66
2023/06/26 04:26:08;;;;;;;8.27;4.57;;;;;;;19.64;89.88;101286.38;5032340;28;20021;-66
2023/06/26 04:28:35;;;;;;;8.20;4.57;;;;;;;19.66;90.09;101286.91;5047996;28;20032;-66
2023/06/26 04:31:01;;;;;;;7.97;4.20;;;;;;;19.69;90.46;101278.00;5047341;28;20070;-66
2023/06/26 04:33:27;;;;;;;8.60;4.22;;;;;;;19.70;91.71;101290.81;5048291;28;20028;-67
2023/06/26 04:35:53;;;;;;;9.27;4.57;;;;;;;19.72;90.64;101289.69;5047302;28;20029;-66
2023/06/26 04:38:19;;;;;;;8.48;4.30;;;;;;;19.74;91.96;101290.25;5046967;28;20028;-67
2023/06/26 04:40:45;;;;;;;8.13;4.57;;;;;;;19.74;92.00;101290.25;5043341;28;20029;-66
2023/06/26 04:43:10;;;;;;;8.38;4.22;;;;;;;19.79;92.31;101293.88;5051142;28;20371;-67
2023/06/26 04:45:36;;;;;;;8.80;4.53;;;;;;;19.87;92.71;101290.50;5048051;28;20674;-66
2023/06/26 04:48:02;;;;;;;9.95;4.45;;;;;;;19.86;92.15;101308.34;5049319;28;20079;-66
2023/06/26 04:50:28;;;;;;;9.70;4.60;;;;;;;19.89;93.04;101304.16;5047428;28;20074;-66
2023/06/26 04:52:57;;;;;;;9.70;5.10;;;;;;;19.89;92.76;101312.53;5053001;28;20037;-67
2023/06/26 04:55:26;;;;;;;8.32;4.65;;;;;;;19.86;93.44;101308.34;5048342;28;20142;-66
2023/06/26 04:57:51;;;;;;;9.60;4.40;;;;;;;19.90;92.74;101312.22;5046443;28;20060;-67
2023/06/26 05:00:17;;;;;;;9.98;4.38;;;;;;;19.86;91.81;101321.44;5046843;28;20112;-66
2023/06/26 05:02:43;;;;;;;8.98;4.40;;;;;;;19.85;92.04;101320.59;5047436;28;20040;-65
2023/06/26 05:05:08;;;;;;;12.73;4.75;;;;;;;19.88;92.91;101324.81;5046745;28;20800;-66
2023/06/26 05:07:33;;;;;;;10.35;4.72;;;;;;;19.89;92.20;101320.88;5046324;28;20626;-66
2023/06/26 05:09:59;;;;;;;10.30;4.22;;;;;;;19.88;92.50;101334.00;5045646;28;20017;-66
2023/06/26 05:12:24;;;;;;;10.20;4.10;;;;;;;19.85;92.85;101333.72;5045898;28;20043;-67
2023/06/26 05:14:49;;;;;;;9.45;4.20;;;;;;;19.86;92.08;101329.81;5046033;28;20071;-67
2023/06/26 05:17:15;;;;;;;11.82;4.03;;;;;;;19.84;91.28;101335.66;5049409;28;20517;-67
2023/06/26 05:19:40;;;;;;;11.02;3.90;;;;;;;19.80;91.30;101333.72;5057568;28;20039;-67
2023/06/26 05:22:07;;;;;;;9.20;4.00;;;;;;;19.81;90.54;101340.97;5046951;28;20059;-67
2023/06/26 05:24:35;;;;;;;11.35;4.05;;;;;;;19.76;89.95;101346.53;5054199;28;20040;-66
2023/06/26 05:27:00;;;;;;;9.43;4.22;;;;;;;19.77;90.58;101343.50;5061365;28;20108;-67
2023/06/26 05:29:27;;;;;;;9.35;3.80;;;;;;;19.80;90.21;101345.69;5047468;28;20120;-67
2023/06/26 05:31:53;;;;;;;10.63;3.75;;;;;;;19.89;91.34;101349.59;5047892;28;20025;-67
2023/06/26 05:34:21;;;;;;;12.93;4.43;;;;;;;19.98;89.76;101347.09;5046597;28;20033;-67
2023/06/26 05:36:50;;;;;;;10.82;4.30;;;;;;;20.06;88.08;101349.28;5047347;28;20032;-67
2023/06/26 05:39:16;;;;;;;8.65;3.50;;;;;;;20.02;88.02;101353.78;5030400;28;20046;-66
2023/06/26 05:41:44;;;;;;;11.45;3.80;;;;;;;20.02;87.81;101353.78;5047291;28;20024;-67
2023/06/26 05:44:09;;;;;;;11.27;3.63;;;;;;;20.03;88.49;101355.44;5045323;28;20021;-65
2023/06/26 05:46:35;;;;;;;10.90;4.00;;;;;;;20.00;87.71;101363.53;5040854;28;20067;-66
2023/06/26 05:49:01;;;;;;;10.05;3.45;;;;;;;20.01;87.99;101367.97;5041384;28;20043;-66
2023/06/26 05:51:27;;;;;;;8.68;3.60;;;;;;;20.04;87.40;101378.59;5046670;28;20103;-67
2023/06/26 05:53:52;;;;;;;11.13;3.75;;;;;;;20.07;86.54;101378.00;5046755;28;20507;-67
2023/06/26 05:56:18;;;;;;;11.68;4.45;;;;;;;20.13;87.15;101377.72;5043702;28;20674;-66
2023/06/26 05:58:44;;;;;;;10.10;3.63;;;;;;;20.18;86.19;101377.72;5045250;28;20463;-67
2023/06/26 06:01:09;;;;;;;10.27;3.80;;;;;;;20.13;85.44;101388.88;5046241;28;20039;-66
2023/06/26 06:03:34;;;;;;;9.02;3.47;;;;;;;20.12;85.84;101386.34;5045585;28;20625;-67
2023/06/26 06:06:00;;;;;;;9.57;3.25;;;;;;;20.14;86.68;101382.19;5046840;28;20029;-67
2023/06/26 06:08:25;;;;;;;7.82;3.28;;;;;;;20.21;85.92;101387.47;5047359;28;20036;-68
2023/06/26 06:10:50;;;;;;;10.05;3.55;;;;;;;20.22;86.41;101397.50;5047238;28;20036;-66
2023/06/26 06:13:16;;;;;;;10.27;3.35;;;;;;;20.23;85.07;101401.97;5030859;28;20033;-67
2023/06/26 06:15:42;;;;;;;9.70;3.40;;;;;;;20.31;86.67;101406.13;5047575;28;20120;-65
2023/06/26 06:18:07;;;;;;;8.80;3.10;;;;;;;20.37;85.90;101410.56;5042977;28;20043;-66
2023/06/26 06:20:32;;;;;;;9.52;3.38;;;;;;;20.38;84.18;101409.47;5042432;28;20029;-67
2023/06/26 06:22:57;;;;;;;9.43;3.58;;;;;;;20.39;84.15;101413.94;5045679;28;20127;-67
2023/06/26 06:25:23;;;;;;;8.00;3.05;;;;;;;20.47;85.40;101417.00;5046555;28;20041;-66
2023/06/26 06:27:48;;;;;;;7.70;3.03;;;;;;;20.54;84.18;101407.50;5048944;28;20029;-66
2023/06/26 06:30:13;;;;;;;9.43;3.00;;;;;;;20.55;83.83;101410.00;5052641;28;20555;-65
2023/06/26 06:32:39;;;;;;;9.48;3.40;;;;;;;20.61;83.17;101416.41;5054452;28;20032;-67
2023/06/26 06:35:09;;;;;;;7.47;2.95;;;;;;;20.64;81.79;101411.09;5049549;28;20036;-67
2023/06/26 06:37:35;;;;;;;8.32;3.05;;;;;;;20.69;83.60;101421.41;5049814;28;20021;-67
2023/06/26 06:40:00;;;;;;;8.63;3.35;;;;;;;20.68;81.90;101423.38;5048184;28;20140;-66
2023/06/26 06:42:25;;;;;;;11.13;3.30;;;;;;;20.65;80.82;101423.94;5049843;28;20032;-68
2023/06/26 06:44:51;;;;;;;6.43;3.08;;;;;;;20.66;82.08;101425.59;5050896;28;20495;-66
2023/06/26 06:47:16;;;;;;;9.43;3.22;;;;;;;20.73;83.01;101434.53;5050183;28;20029;-66
2023/06/26 06:49:41;;;;;;;8.25;3.45;;;;;;;20.88;82.04;101450.38;5038869;28;20053;-66
2023/06/26 06:52:07;;;;;;;8.77;3.35;;;;;;;20.92;80.53;101440.28;5029968;28;20032;-67
2023/06/26 06:54:51;;;;;;;8.80;3.15;;;;;;;20.96;80.96;101449.78;5043115;28;20370;-66
2023/06/26 06:57:16;;;;;;;8.25;3.30;;;;;;;21.03;80.14;101452.25;5049302;28;20024;-67
2023/06/26 06:59:42;;;;;;;8.10;2.88;;;;;;;21.19;79.20;101447.44;5049598;28;20494;-67
2023/06/26 07:02:07;;;;;;;8.52;3.22;;;;;;;21.35;78.77;101451.03;5050194;28;20422;-66
2023/06/26 07:04:32;;;;;;;9.27;3.20;;;;;;;21.42;78.97;101465.50;5047516;28;20142;-66
2023/06/26 07:06:58;;;;;;;7.50;3.08;;;;;;;21.29;77.12;101466.94;5050137;28;20021;-66
2023/06/26 07:09:23;;;;;;;6.68;2.65;;;;;;;21.18;77.77;101476.47;5050115;28;20013;-66
2023/06/26 07:11:48;;;;;;;7.60;2.90;;;;;;;21.15;78.29;101475.13;5049452;28;20463;-66
2023/06/26 07:14:14;;;;;;;5.35;2.70;;;;;;;21.17;79.19;101472.84;5047851;28;20057;-67
2023/06/26 07:16:39;;;;;;;6.45;3.03;;;;;;;21.23;76.36;101477.28;5045360;28;20090;-66
2023/06/26 07:19:04;;;;;;;7.32;2.75;;;;;;;21.32;77.12;101471.97;5049502;28;20029;-66
2023/06/26 07:21:30;;;;;;;7.47;3.08;;;;;;;21.40;76.84;101476.16;5042643;28;20027;-67
2023/06/26 07:23:55;;;;;;;6.25;2.90;;;;;;;21.39;76.85;101480.03;5040267;28;20029;-68
2023/06/26 07:26:21;;;;;;;7.03;2.90;;;;;;;21.41;76.46;101481.44;5042115;28;20035;-66
2023/06/26 07:28:48;;;;;;;5.57;2.50;;;;;;;21.41;76.69;101498.19;5039637;28;20033;-66
2023/06/26 07:31:14;;;;;;;6.72;2.67;;;;;;;21.50;76.72;101495.66;5045840;28;20392;-65
2023/06/26 07:33:40;;;;;;;6.88;3.20;;;;;;;21.59;76.90;101499.47;5036449;28;20029;-66
2023/06/26 07:36:05;;;;;;;7.55;3.10;;;;;;;21.56;75.83;101505.66;5046511;28;20578;-66
2023/06/26 07:38:31;;;;;;;6.82;2.67;;;;;;;21.60;76.20;101506.75;5037654;28;20087;-65
2023/06/26 07:40:56;;;;;;;7.03;3.35;;;;;;;21.63;77.18;101510.94;5039166;28;20024;-68
2023/06/26 07:43:22;;;;;;;7.00;2.63;;;;;;;21.80;75.89;101511.41;5045036;28;20029;-66
2023/06/26 07:45:48;;;;;;;6.00;2.90;;;;;;;21.90;74.32;101510.50;5042421;28;20072;-65
2023/06/26 07:48:13;;;;;;;6.38;3.00;;;;;;;21.99;74.85;101514.31;5040889;28;20075;-66
2023/06/26 07:50:39;;;;;;;5.80;2.80;;;;;;;22.12;74.87;101510.91;5029349;28;20057;-65
2023/06/26 07:53:05;;;;;;;7.05;3.08;;;;;;;22.31;72.25;101513.81;5043152;28;20530;-66
2023/06/26 07:55:31;;;;;;;5.32;2.90;;;;;;;22.24;72.65;101535.69;5045636;28;20029;-66
2023/06/26 07:57:57;;;;;;;4.70;2.90;;;;;;;22.08;70.04;101540.53;5041577;28;20037;-67
2023/06/26 08:00:22;;;;;;;4.38;2.42;;;;;;;21.89;70.74;101525.56;5042911;28;20033;-66
2023/06/26 08:02:47;;;;;;;4.25;2.35;;;;;;;21.84;71.73;101528.41;5038872;28;20036;-66
2023/06/26 08:05:13;;;;;;;5.55;2.30;;;;;;;21.81;70.10;101529.84;5042281;28;20025;-66
2023/06/26 08:07:39;;;;;;;4.75;2.15;;;;;;;21.87;69.71;101530.63;5034006;28;20025;-66
2023/06/26 08:10:05;;;;;;;5.30;2.03;;;;;;;21.88;69.08;101541.53;5035073;28;20025;-66
2023/06/26 08:12:30;;;;;;;3.28;1.70;;;;;;;22.08;65.82;101537.75;5035687;28;20040;-65
2023/06/26 08:14:55;;;;;;;4.38;1.67;;;;;;;22.14;63.93;101550.59;5035632;28;20053;-67
2023/06/26 08:17:21;;;;;;;3.13;1.20;;;;;;;22.12;63.21;101552.03;5036665;28;20103;-67
2023/06/26 08:19:46;;;;;;;4.13;1.20;;;;;;;21.96;59.89;101554.06;5037577;28;20037;-66
2023/06/26 08:22:11;;;;;;;3.47;1.15;;;;;;;21.75;60.87;101554.22;5041971;28;20021;-61
2023/06/26 08:24:36;;;;;;;3.75;1.27;;;;;;;21.68;62.18;101553.66;5039895;28;20082;-63
2023/06/26 08:27:03;;;;;;;3.72;1.35;;;;;;;21.62;61.86;101557.63;5039152;28;20033;-63
2023/06/26 08:29:29;;;;;;;6.60;1.42;;;;;;;21.66;62.74;101561.53;5042953;28;20127;-63
2023/06/26 08:31:54;;;;;;;3.50;1.15;;;;;;;21.66;61.60;101555.09;5048663;28;20120;-63
2023/06/26 08:34:19;;;;;;;3.60;1.17;;;;;;;21.71;62.55;101558.69;5033630;28;20053;-63
2023/06/26 08:36:45;;;;;;;5.57;1.40;;;;;;;21.82;64.51;101553.03;5040623;28;20048;-64
2023/06/26 08:39:10;;;;;;;3.47;1.17;;;;;;;21.86;62.08;101554.13;5036858;28;21826;-63
2023/06/26 08:41:36;;;;;;;4.38;1.30;;;;;;;21.85;61.22;101547.72;5047525;28;20032;-62
2023/06/26 08:44:03;;;;;;;4.15;1.60;;;;;;;21.96;63.46;101563.28;5048008;28;20115;-63
2023/06/26 08:46:28;;;;;;;3.33;1.30;;;;;;;22.14;58.64;101559.00;5043201;28;20049;-64
2023/06/26 08:49:01;;;;;;;3.17;1.30;;;;;;;22.23;59.11;101570.41;5046090;28;20029;-62
2023/06/26 08:51:28;;;;;;;4.07;1.23;;;;;;;22.21;58.18;101578.28;5041252;28;20051;-63
2023/06/26 08:54:02;;;;;;;2.93;1.10;;;;;;;22.38;58.87;101573.09;5050273;28;20070;-63
2023/06/26 08:56:42;;;;;;;4.65;1.33;;;;;;;22.53;58.97;101586.13;5031399;28;20342;-63
2023/06/26 08:59:10;;;;;;;3.33;1.05;;;;;;;22.65;57.96;101580.97;5041981;28;20036;-62
2023/06/26 09:01:36;;;;;;;3.17;1.00;;;;;;;22.71;58.08;101577.00;5044051;28;20407;-63
2023/06/26 09:04:02;;;;;;;5.28;1.30;;;;;;;22.89;57.05;101583.00;5034945;28;20456;-62
2023/06/26 09:06:27;;;;;;;2.55;0.90;;;;;;;22.79;54.93;101589.53;5034946;28;20071;-63
2023/06/26 09:08:53;;;;;;;3.53;1.20;;;;;;;22.49;57.06;101591.47;5039146;28;20443;-63
2023/06/26 09:11:18;;;;;;;4.15;1.35;;;;;;;22.37;58.03;101591.00;5036802;28;20167;-63
2023/06/26 09:13:44;;;;;;;3.72;1.23;;;;;;;22.39;59.21;101597.13;5033311;28;20028;-62
2023/06/26 09:16:09;;;;;;;4.18;1.23;;;;;;;22.56;58.64;101591.16;5039378;28;20098;-63
2023/06/26 09:18:35;;;;;;;3.35;1.30;;;;;;;22.69;58.89;101595.22;5042359;28;20437;-62
2023/06/26 09:21:06;;;;;;;4.13;1.30;;;;;;;22.78;58.71;101616.69;5042245;28;20146;-63
2023/06/26 09:23:32;;;;;;;3.72;1.20;;;;;;;22.85;57.48;101598.69;5042362;28;20047;-64
2023/06/26 09:25:57;;;;;;;2.60;1.00;;;;;;;22.76;57.38;101596.56;5040709;28;20025;-62
2023/06/26 09:28:22;;;;;;;3.38;1.30;;;;;;;22.72;56.86;101605.84;5045324;28;20025;-62
2023/06/26 09:30:50;;;;;;;4.50;1.48;;;;;;;22.67;55.80;101601.13;5043140;28;20491;-63
2023/06/26 09:33:17;;;;;;;2.70;0.98;;;;;;;22.91;53.73;101608.75;5042063;28;20033;-63
2023/06/26 09:35:47;;;;;;;2.40;0.90;;;;;;;23.26;54.84;101602.75;5037808;28;20032;-64
2023/06/26 09:38:14;;;;;;;4.07;1.10;;;;;;;23.87;52.51;101615.22;5046251;28;20013;-63
2023/06/26 09:40:40;;;;;;;4.40;1.13;;;;;;;24.80;51.06;101609.84;5046561;28;20040;-64
2023/06/26 09:43:06;;;;;;;5.35;1.10;;;;;;;26.17;44.23;101620.31;5044039;28;20021;-62
2023/06/26 09:45:38;;;;;;;3.22;1.10;;;;;;;27.50;41.14;101633.81;5043931;28;20045;-63
2023/06/26 09:48:04;;;;;;;2.97;0.98;;;;;;;29.19;38.53;101632.91;5042318;28;20517;-62
2023/06/26 09:50:33;;;;;;;3.13;1.10;;;;;;;29.88;36.36;101631.78;5038993;28;20025;-60
2023/06/26 09:52:59;;;;;;;3.88;0.90;;;;;;;29.93;36.30;101642.91;5040813;28;20639;-61
2023/06/26 09:55:25;;;;;;;4.50;1.00;;;;;;;30.83;34.45;101639.53;5042053;28;20068;-61
2023/06/26 09:57:51;;;;;;;4.82;1.00;;;;;;;30.33;33.48;101637.63;5043486;28;20031;-61
2023/06/26 10:00:17;;;;;;;4.68;0.98;;;;;;;29.94;33.40;101648.22;5041990;28;20041;-61
2023/06/26 10:02:43;;;;;;;1.83;0.60;;;;;;;30.85;32.29;101637.16;5044679;28;20538;-60
2023/06/26 10:05:09;;;;;;;1.95;0.77;;;;;;;30.48;33.43;101645.50;5040346;28;20052;-61
2023/06/26 10:07:36;;;;;;;2.45;0.60;;;;;;;29.67;35.30;101648.72;5044954;28;20032;-60
2023/06/26 10:10:02;;;;;;;2.83;0.90;;;;;;;28.92;36.47;101653.91;5043972;28;20025;-61
2023/06/26 10:12:30;;;;;;;3.50;0.77;;;;;;;29.50;35.41;101658.06;5039478;28;20052;-61
2023/06/26 10:14:57;;;;;;;2.83;0.80;;;;;;;30.44;33.79;101655.88;5044163;28;20396;-62
2023/06/26 10:17:25;;;;;;;2.35;0.80;;;;;;;31.12;30.98;101671.75;5036864;28;20025;-61
2023/06/26 10:19:52;;;;;;;;;;;;;;;32.27;31.44;101669.59;5037730;28;20040;-61
2023/06/26 10:22:20;;;;;;;1.33;0.70;;;;;;;32.51;27.92;101663.03;5047703;28;20059;-61
2023/06/26 10:24:48;;;;;;;2.50;0.70;;;;;;;32.57;27.87;101659.94;5043955;28;21012;-60
2023/06/26 10:27:21;;;;;;;3.15;0.90;;;;;;;32.29;29.60;101667.22;5046998;28;20107;-62
2023/06/26 10:29:50;;;;;;;2.90;0.70;;;;;;;31.71;29.43;101662.88;5043232;28;20036;-61
2023/06/26 10:32:18;;;;;;;3.15;1.05;;;;;;;31.11;31.60;101656.75;5045814;28;20257;-62
2023/06/26 10:34:44;;;;;;;4.18;1.20;;;;;;;29.34;32.64;101657.00;5043479;28;20332;-61
2023/06/26 10:37:09;;;;;;;3.28;0.70;;;;;;;29.59;34.49;101658.06;5044488;28;20029;-60
2023/06/26 10:39:52;;;;;;;2.03;0.73;;;;;;;29.79;33.89;101662.97;5045376;28;20499;-62
2023/06/26 10:42:19;;;;;;;3.67;0.77;;;;;;;29.59;33.61;101667.41;5044387;28;20036;-62
2023/06/26 10:44:45;;;;;;;2.53;0.73;;;;;;;28.29;34.99;101667.56;5043355;28;20056;-63
2023/06/26 10:47:28;;;;;;;2.90;1.02;;;;;;;27.21;36.83;101683.13;5045709;28;20025;-62
2023/06/26 10:49:53;;;;;;;3.08;1.15;;;;;;;26.85;38.76;101684.03;5042238;28;20495;-61
2023/06/26 10:52:19;;;;;;;1.70;0.70;;;;;;;26.63;36.34;101672.75;5046321;28;20040;-62
2023/06/26 10:54:44;;;;;;;4.07;0.90;;;;;;;26.51;36.81;101678.97;5044590;28;20040;-62
2023/06/26 10:57:10;;;;;;;2.75;0.90;;;;;;;26.46;38.39;101667.81;5044934;28;20025;-63
2023/06/26 10:59:39;;;;;;;4.00;1.20;;;;;;;25.93;39.26;101676.03;5046139;28;20058;-61
2023/06/26 11:02:05;;;;;;;3.47;1.00;;;;;;;25.73;38.45;101671.63;5044878;28;20033;-61
2023/06/26 11:04:36;;;;;;;3.53;1.02;;;;;;;25.70;40.32;101692.81;5043071;28;20017;-62
2023/06/26 11:07:22;;;;;;;2.78;0.93;;;;;;;25.74;38.92;101690.19;5043780;28;20375;-62
2023/06/26 11:10:00;;;;;;;1.58;0.88;;;;;;;25.58;38.17;101703.72;5044650;28;20036;-62
2023/06/26 11:12:42;;;;;;;2.92;0.75;;;;;;;25.62;38.42;101702.78;5044694;28;20028;-64
2023/06/26 11:15:13;;;;;;;2.83;0.95;;;;;;;25.63;38.70;101689.56;5048713;28;20087;-62
2023/06/26 11:17:39;;;;;;;1.90;0.88;;;;;;;25.85;39.35;101688.84;5049546;28;20021;-61
2023/06/26 11:20:13;;;;;;;2.38;0.80;;;;;;;25.94;38.18;101692.59;5048399;28;20029;-62
2023/06/26 11:22:40;;;;;;;3.08;1.00;;;;;;;26.15;38.57;101698.63;5049650;28;20029;-63